sensor_id;sensor_type;location;lat;lon;timestamp;pressure;altitude;pressure_sealevel;temperature;humidity
41898;BME280;27576;53.366;-1.498;2023-01-25T00:00:14;102141.78;;;4.71;100.00
41898;BME280;27576;53.366;-1.498;2023-01-25T00:02:39;102128.16;;;4.59;100.00
41898;BME280;27576;53.366;-1.498;2023-01-25T00:05:05;102133.69;;;4.65;100.00
41898;BME280;27576;53.366;-1.498;2023-01-25T00:07:30;102124.03;;;4.61;100.00
41898;BME280;27576;53.366;-1.498;2023-01-25T00:09:56;102103.19;;;4.43;100.00
41898;BME280;27576;53.366;-1.498;2023-01-25T00:12:21;102128.53;;;4.52;100.00
41898;BME280;27576;53.366;-1.498;2023-01-25T00:14:46;102123.22;;;4.49;100.00
41898;BME280;27576;53.366;-1.498;2023-01-25T00:17:12;102110.28;;;4.34;100.00
41898;BME280;27576;53.366;-1.498;2023-01-25T00:19:37;102124.09;;;4.36;100.00
41898;BME280;27576;53.366;-1.498;2023-01-25T00:22:03;102116.81;;;4.29;100.00
41898;BME280;27576;53.366;-1.498;2023-01-25T00:24:28;102093.78;;;4.17;100.00
41898;BME280;27576;53.366;-1.498;2023-01-25T00:26:53;102105.25;;;4.22;100.00
41898;BME280;27576;53.366;-1.498;2023-01-25T00:29:19;102120.56;;;4.34;100.00
41898;BME280;27576;53.366;-1.498;2023-01-25T00:36:57;102122.91;;;4.44;100.00
41898;BME280;27576;53.366;-1.498;2023-01-25T00:39:24;102106.72;;;4.32;100.00
41898;BME280;27576;53.366;-1.498;2023-01-25T00:41:50;102118.28;;;4.38;100.00
41898;BME280;27576;53.366;-1.498;2023-01-25T00:44:15;102087.38;;;4.24;100.00
41898;BME280;27576;53.366;-1.498;2023-01-25T00:46:41;102109.88;;;4.28;100.00
41898;BME280;27576;53.366;-1.498;2023-01-25T00:49:18;102125.38;;;4.29;100.00
41898;BME280;27576;53.366;-1.498;2023-01-25T00:51:45;102117.19;;;4.22;100.00
41898;BME280;27576;53.366;-1.498;2023-01-25T00:54:10;102108.28;;;4.16;100.00
41898;BME280;27576;53.366;-1.498;2023-01-25T00:56:35;102114.63;;;4.22;100.00
41898;BME280;27576;53.366;-1.498;2023-01-25T00:59:01;102077.09;;;3.97;100.00
41898;BME280;27576;53.366;-1.498;2023-01-25T01:01:26;102114.91;;;4.13;100.00
41898;BME280;27576;53.366;-1.498;2023-01-25T01:03:51;102120.56;;;4.21;100.00
41898;BME280;27576;53.366;-1.498;2023-01-25T01:06:17;102111.53;;;4.14;100.00
41898;BME280;27576;53.366;-1.498;2023-01-25T01:08:42;102094.19;;;4.10;100.00
41898;BME280;27576;53.366;-1.498;2023-01-25T01:11:10;102102.84;;;4.12;100.00
41898;BME280;27576;53.366;-1.498;2023-01-25T01:13:36;102116.69;;;4.14;100.00
41898;BME280;27576;53.366;-1.498;2023-01-25T01:16:04;102108.56;;;4.08;100.00
41898;BME280;27576;53.366;-1.498;2023-01-25T01:18:37;102112.50;;;4.03;100.00
41898;BME280;27576;53.366;-1.498;2023-01-25T01:21:02;102074.59;;;3.85;100.00
41898;BME280;27576;53.366;-1.498;2023-01-25T01:23:29;102079.31;;;3.92;100.00
41898;BME280;27576;53.366;-1.498;2023-01-25T01:25:54;102088.81;;;3.93;100.00
41898;BME280;27576;53.366;-1.498;2023-01-25T01:28:20;102097.13;;;4.03;100.00
41898;BME280;27576;53.366;-1.498;2023-01-25T01:30:45;102102.84;;;3.99;100.00
41898;BME280;27576;53.366;-1.498;2023-01-25T01:33:10;102106.28;;;3.99;100.00
41898;BME280;27576;53.366;-1.498;2023-01-25T01:35:36;102014.94;;;3.50;100.00
41898;BME280;27576;53.366;-1.498;2023-01-25T01:38:01;102080.41;;;3.83;100.00
41898;BME280;27576;53.366;-1.498;2023-01-25T01:40:27;102082.91;;;3.94;100.00
41898;BME280;27576;53.366;-1.498;2023-01-25T01:43:21;102054.34;;;3.77;100.00
41898;BME280;27576;53.366;-1.498;2023-01-25T01:48:37;102087.66;;;4.02;100.00
41898;BME280;27576;53.366;-1.498;2023-01-25T01:54:08;102077.78;;;3.94;100.00
41898;BME280;27576;53.366;-1.498;2023-01-25T01:59:12;102047.25;;;3.73;100.00
41898;BME280;27576;53.366;-1.498;2023-01-25T02:01:38;102068.25;;;3.80;100.00
41898;BME280;27576;53.366;-1.498;2023-01-25T02:04:05;102062.91;;;3.77;100.00
41898;BME280;27576;53.366;-1.498;2023-01-25T02:06:40;102073.09;;;3.76;100.00
41898;BME280;27576;53.366;-1.498;2023-01-25T02:09:08;102071.31;;;3.75;100.00
41898;BME280;27576;53.366;-1.498;2023-01-25T02:11:34;102038.50;;;3.44;100.00
41898;BME280;27576;53.366;-1.498;2023-01-25T02:14:01;102068.50;;;3.58;100.00
41898;BME280;27576;53.366;-1.498;2023-01-25T02:16:27;102065.81;;;3.57;100.00
41898;BME280;27576;53.366;-1.498;2023-01-25T02:18:54;102063.09;;;3.54;100.00
41898;BME280;27576;53.366;-1.498;2023-01-25T02:21:22;102071.97;;;3.59;100.00
41898;BME280;27576;53.366;-1.498;2023-01-25T02:26:21;102022.81;;;3.39;100.00
41898;BME280;27576;53.366;-1.498;2023-01-25T02:31:16;102051.75;;;3.63;100.00
41898;BME280;27576;53.366;-1.498;2023-01-25T02:33:42;102041.22;;;3.59;100.00
41898;BME280;27576;53.366;-1.498;2023-01-25T02:38:46;102024.06;;;3.58;100.00
41898;BME280;27576;53.366;-1.498;2023-01-25T02:43:43;102040.63;;;3.63;100.00
41898;BME280;27576;53.366;-1.498;2023-01-25T02:46:13;102055.63;;;3.70;100.00
41898;BME280;27576;53.366;-1.498;2023-01-25T02:48:39;102032.41;;;3.55;100.00
41898;BME280;27576;53.366;-1.498;2023-01-25T02:51:08;102049.50;;;3.68;100.00
41898;BME280;27576;53.366;-1.498;2023-01-25T02:53:34;102048.72;;;3.69;100.00
41898;BME280;27576;53.366;-1.498;2023-01-25T02:55:59;102028.97;;;3.55;100.00
41898;BME280;27576;53.366;-1.498;2023-01-25T02:58:25;102037.06;;;3.61;100.00
41898;BME280;27576;53.366;-1.498;2023-01-25T03:00:50;102019.00;;;3.46;100.00
41898;BME280;27576;53.366;-1.498;2023-01-25T03:03:16;102020.13;;;3.38;100.00
41898;BME280;27576;53.366;-1.498;2023-01-25T03:05:42;102051.47;;;3.59;100.00
41898;BME280;27576;53.366;-1.498;2023-01-25T03:08:08;102034.03;;;3.41;100.00
41898;BME280;27576;53.366;-1.498;2023-01-25T03:10:33;102023.38;;;3.35;100.00
41898;BME280;27576;53.366;-1.498;2023-01-25T03:12:59;102057.25;;;3.56;100.00
41898;BME280;27576;53.366;-1.498;2023-01-25T03:15:24;102024.59;;;3.40;100.00
41898;BME280;27576;53.366;-1.498;2023-01-25T03:17:50;102013.03;;;3.34;100.00
41898;BME280;27576;53.366;-1.498;2023-01-25T03:20:15;102033.72;;;3.37;100.00
41898;BME280;27576;53.366;-1.498;2023-01-25T03:22:40;102051.22;;;3.42;100.00
41898;BME280;27576;53.366;-1.498;2023-01-25T03:25:06;102039.56;;;3.34;100.00
41898;BME280;27576;53.366;-1.498;2023-01-25T03:27:32;102012.00;;;3.18;100.00
41898;BME280;27576;53.366;-1.498;2023-01-25T03:29:57;102042.00;;;3.33;100.00
41898;BME280;27576;53.366;-1.498;2023-01-25T03:32:23;102043.00;;;3.35;100.00
41898;BME280;27576;53.366;-1.498;2023-01-25T03:34:48;102050.47;;;3.32;100.00
41898;BME280;27576;53.366;-1.498;2023-01-25T03:37:13;102020.13;;;3.13;100.00
41898;BME280;27576;53.366;-1.498;2023-01-25T03:39:39;102037.56;;;3.30;100.00
41898;BME280;27576;53.366;-1.498;2023-01-25T03:42:05;101996.00;;;3.09;100.00
41898;BME280;27576;53.366;-1.498;2023-01-25T03:44:30;102033.50;;;3.34;100.00
41898;BME280;27576;53.366;-1.498;2023-01-25T03:46:56;102012.97;;;3.20;100.00
41898;BME280;27576;53.366;-1.498;2023-01-25T03:49:21;102038.19;;;3.39;100.00
41898;BME280;27576;53.366;-1.498;2023-01-25T03:51:46;102001.84;;;3.20;100.00
41898;BME280;27576;53.366;-1.498;2023-01-25T03:54:12;102008.59;;;3.31;100.00
41898;BME280;27576;53.366;-1.498;2023-01-25T03:56:37;101989.34;;;3.25;100.00
41898;BME280;27576;53.366;-1.498;2023-01-25T03:59:03;102028.34;;;3.45;100.00
41898;BME280;27576;53.366;-1.498;2023-01-25T04:01:28;102022.13;;;3.42;100.00
41898;BME280;27576;53.366;-1.498;2023-01-25T04:03:54;101986.56;;;3.22;100.00
41898;BME280;27576;53.366;-1.498;2023-01-25T04:06:19;102000.63;;;3.40;100.00
41898;BME280;27576;53.366;-1.498;2023-01-25T04:08:45;102003.72;;;3.48;100.00
41898;BME280;27576;53.366;-1.498;2023-01-25T04:11:10;102013.31;;;3.63;100.00
41898;BME280;27576;53.366;-1.498;2023-01-25T04:13:37;101984.59;;;3.56;100.00
41898;BME280;27576;53.366;-1.498;2023-01-25T04:16:04;102008.03;;;3.74;100.00
41898;BME280;27576;53.366;-1.498;2023-01-25T04:18:30;102002.88;;;3.74;100.00
41898;BME280;27576;53.366;-1.498;2023-01-25T04:20:55;101983.13;;;3.59;100.00
41898;BME280;27576;53.366;-1.498;2023-01-25T04:23:22;102003.66;;;3.73;100.00
41898;BME280;27576;53.366;-1.498;2023-01-25T04:28:18;101988.16;;;3.58;100.00
41898;BME280;27576;53.366;-1.498;2023-01-25T04:30:43;101916.00;;;3.13;100.00
41898;BME280;27576;53.366;-1.498;2023-01-25T04:33:08;101982.63;;;3.52;100.00
41898;BME280;27576;53.366;-1.498;2023-01-25T04:35:36;101977.28;;;3.49;100.00
41898;BME280;27576;53.366;-1.498;2023-01-25T04:38:01;101973.25;;;3.39;100.00
41898;BME280;27576;53.366;-1.498;2023-01-25T04:40:27;101996.03;;;3.48;100.00
41898;BME280;27576;53.366;-1.498;2023-01-25T04:42:52;101986.06;;;3.39;100.00
41898;BME280;27576;53.366;-1.498;2023-01-25T04:45:18;101989.28;;;3.36;100.00
41898;BME280;27576;53.366;-1.498;2023-01-25T04:47:43;101960.78;;;3.18;100.00
41898;BME280;27576;53.366;-1.498;2023-01-25T04:50:09;101973.09;;;3.24;100.00
41898;BME280;27576;53.366;-1.498;2023-01-25T04:52:34;101950.00;;;3.11;100.00
41898;BME280;27576;53.366;-1.498;2023-01-25T04:54:59;101955.13;;;3.11;100.00
41898;BME280;27576;53.366;-1.498;2023-01-25T04:57:25;101936.34;;;2.99;100.00
41898;BME280;27576;53.366;-1.498;2023-01-25T04:59:50;101945.25;;;3.04;100.00
41898;BME280;27576;53.366;-1.498;2023-01-25T05:02:16;101930.75;;;2.91;100.00
41898;BME280;27576;53.366;-1.498;2023-01-25T05:04:41;101963.28;;;3.05;100.00
41898;BME280;27576;53.366;-1.498;2023-01-25T05:07:07;101912.66;;;2.76;100.00
41898;BME280;27576;53.366;-1.498;2023-01-25T05:09:32;101924.88;;;2.80;100.00
41898;BME280;27576;53.366;-1.498;2023-01-25T05:11:57;101875.19;;;2.65;100.00
41898;BME280;27576;53.366;-1.498;2023-01-25T05:14:23;101937.66;;;3.05;100.00
41898;BME280;27576;53.366;-1.498;2023-01-25T05:16:48;101922.59;;;3.10;100.00
41898;BME280;27576;53.366;-1.498;2023-01-25T05:19:14;101926.75;;;3.08;100.00
41898;BME280;27576;53.366;-1.498;2023-01-25T05:21:39;101898.66;;;2.96;100.00
41898;BME280;27576;53.366;-1.498;2023-01-25T05:24:33;101939.22;;;3.28;100.00
41898;BME280;27576;53.366;-1.498;2023-01-25T05:26:59;101898.00;;;3.12;100.00
41898;BME280;27576;53.366;-1.498;2023-01-25T05:29:38;101938.25;;;3.39;100.00
41898;BME280;27576;53.366;-1.498;2023-01-25T05:32:12;101918.56;;;3.38;100.00
41898;BME280;27576;53.366;-1.498;2023-01-25T05:34:39;101927.72;;;3.61;100.00
41898;BME280;27576;53.366;-1.498;2023-01-25T05:37:06;101926.56;;;3.69;100.00
41898;BME280;27576;53.366;-1.498;2023-01-25T05:39:32;101926.88;;;3.74;100.00
41898;BME280;27576;53.366;-1.498;2023-01-25T05:41:57;101922.03;;;3.79;100.00
41898;BME280;27576;53.366;-1.498;2023-01-25T05:44:23;101920.53;;;3.82;100.00
41898;BME280;27576;53.366;-1.498;2023-01-25T05:46:49;101919.25;;;3.89;100.00
41898;BME280;27576;53.366;-1.498;2023-01-25T05:49:15;101915.41;;;3.96;100.00
41898;BME280;27576;53.366;-1.498;2023-01-25T05:51:41;101911.88;;;3.93;100.00
41898;BME280;27576;53.366;-1.498;2023-01-25T05:54:10;101911.88;;;3.93;100.00
41898;BME280;27576;53.366;-1.498;2023-01-25T05:56:37;101889.09;;;3.72;100.00
41898;BME280;27576;53.366;-1.498;2023-01-25T05:59:02;101885.22;;;3.65;100.00
41898;BME280;27576;53.366;-1.498;2023-01-25T06:01:27;101848.28;;;3.35;100.00
41898;BME280;27576;53.366;-1.498;2023-01-25T06:03:53;101922.91;;;3.66;100.00
41898;BME280;27576;53.366;-1.498;2023-01-25T06:06:19;101920.94;;;3.62;100.00
41898;BME280;27576;53.366;-1.498;2023-01-25T06:08:46;101910.44;;;3.45;100.00
41898;BME280;27576;53.366;-1.498;2023-01-25T06:11:13;101916.38;;;3.44;100.00
41898;BME280;27576;53.366;-1.498;2023-01-25T06:13:39;101907.09;;;3.33;100.00
41898;BME280;27576;53.366;-1.498;2023-01-25T06:16:05;101914.19;;;3.37;100.00
41898;BME280;27576;53.366;-1.498;2023-01-25T06:18:32;101901.38;;;3.24;100.00
41898;BME280;27576;53.366;-1.498;2023-01-25T06:20:58;101897.19;;;3.13;100.00
41898;BME280;27576;53.366;-1.498;2023-01-25T06:23:24;101914.97;;;3.23;100.00
41898;BME280;27576;53.366;-1.498;2023-01-25T06:25:50;101903.50;;;3.18;100.00
41898;BME280;27576;53.366;-1.498;2023-01-25T06:28:15;101907.44;;;3.13;100.00
41898;BME280;27576;53.366;-1.498;2023-01-25T06:30:41;101876.28;;;2.93;100.00
41898;BME280;27576;53.366;-1.498;2023-01-25T06:33:07;101910.97;;;3.02;100.00
41898;BME280;27576;53.366;-1.498;2023-01-25T06:35:33;101911.97;;;3.04;100.00
41898;BME280;27576;53.366;-1.498;2023-01-25T06:37:59;101908.41;;;3.02;100.00
41898;BME280;27576;53.366;-1.498;2023-01-25T06:40:26;101847.06;;;2.65;100.00
41898;BME280;27576;53.366;-1.498;2023-01-25T06:42:52;101881.97;;;2.89;100.00
41898;BME280;27576;53.366;-1.498;2023-01-25T06:45:18;101886.06;;;2.99;100.00
41898;BME280;27576;53.366;-1.498;2023-01-25T06:47:43;101870.56;;;2.98;100.00
41898;BME280;27576;53.366;-1.498;2023-01-25T06:50:11;101886.97;;;3.13;100.00
41898;BME280;27576;53.366;-1.498;2023-01-25T06:52:36;101869.31;;;3.04;100.00
41898;BME280;27576;53.366;-1.498;2023-01-25T06:55:03;101863.53;;;3.07;100.00
41898;BME280;27576;53.366;-1.498;2023-01-25T06:57:30;101839.53;;;2.93;100.00
41898;BME280;27576;53.366;-1.498;2023-01-25T06:59:55;101861.63;;;3.04;100.00
41898;BME280;27576;53.366;-1.498;2023-01-25T07:02:20;101877.00;;;3.17;100.00
41898;BME280;27576;53.366;-1.498;2023-01-25T07:04:46;101874.44;;;3.17;100.00
41898;BME280;27576;53.366;-1.498;2023-01-25T07:07:11;101867.06;;;3.22;100.00
41898;BME280;27576;53.366;-1.498;2023-01-25T07:09:37;101868.28;;;3.27;100.00
41898;BME280;27576;53.366;-1.498;2023-01-25T07:12:02;101853.66;;;3.26;100.00
41898;BME280;27576;53.366;-1.498;2023-01-25T07:14:31;101836.75;;;3.15;100.00
41898;BME280;27576;53.366;-1.498;2023-01-25T07:16:56;101868.66;;;3.33;100.00
41898;BME280;27576;53.366;-1.498;2023-01-25T07:19:22;101811.78;;;2.99;100.00
41898;BME280;27576;53.366;-1.498;2023-01-25T07:21:47;101870.47;;;3.34;100.00
41898;BME280;27576;53.366;-1.498;2023-01-25T07:24:15;101864.53;;;3.35;100.00
41898;BME280;27576;53.366;-1.498;2023-01-25T07:26:41;101862.06;;;3.37;100.00
41898;BME280;27576;53.366;-1.498;2023-01-25T07:29:08;101837.63;;;3.29;100.00
41898;BME280;27576;53.366;-1.498;2023-01-25T07:31:35;101831.53;;;3.40;100.00
41898;BME280;27576;53.366;-1.498;2023-01-25T07:34:01;101833.31;;;3.54;100.00
41898;BME280;27576;53.366;-1.498;2023-01-25T07:36:26;101813.28;;;3.49;100.00
41898;BME280;27576;53.366;-1.498;2023-01-25T07:38:56;101812.81;;;3.54;100.00
41898;BME280;27576;53.366;-1.498;2023-01-25T07:41:23;101834.84;;;3.79;100.00
41898;BME280;27576;53.366;-1.498;2023-01-25T07:43:48;101821.34;;;3.81;100.00
41898;BME280;27576;53.366;-1.498;2023-01-25T07:46:14;101809.09;;;3.77;100.00
41898;BME280;27576;53.366;-1.498;2023-01-25T07:48:45;101830.88;;;3.97;100.00
41898;BME280;27576;53.366;-1.498;2023-01-25T07:51:11;101798.16;;;3.93;100.00
41898;BME280;27576;53.366;-1.498;2023-01-25T07:53:41;101823.34;;;4.13;100.00
41898;BME280;27576;53.366;-1.498;2023-01-25T07:56:08;101822.63;;;4.16;100.00
41898;BME280;27576;53.366;-1.498;2023-01-25T07:58:34;101801.47;;;4.05;100.00
41898;BME280;27576;53.366;-1.498;2023-01-25T08:01:11;101777.09;;;3.99;100.00
41898;BME280;27576;53.366;-1.498;2023-01-25T08:03:37;101794.13;;;4.11;100.00
41898;BME280;27576;53.366;-1.498;2023-01-25T08:06:02;101784.94;;;4.15;100.00
41898;BME280;27576;53.366;-1.498;2023-01-25T08:08:33;101804.03;;;4.33;100.00
41898;BME280;27576;53.366;-1.498;2023-01-25T08:11:22;101772.56;;;4.23;100.00
41898;BME280;27576;53.366;-1.498;2023-01-25T08:13:46;101766.50;;;4.35;100.00
41898;BME280;27576;53.366;-1.498;2023-01-25T08:16:13;101774.75;;;4.59;100.00
41898;BME280;27576;53.366;-1.498;2023-01-25T08:18:40;101731.66;;;4.54;100.00
41898;BME280;27576;53.366;-1.498;2023-01-25T08:21:05;101719.44;;;4.64;100.00
41898;BME280;27576;53.366;-1.498;2023-01-25T08:23:31;101724.66;;;4.81;100.00
41898;BME280;27576;53.366;-1.498;2023-01-25T08:26:10;101719.16;;;4.89;100.00
41898;BME280;27576;53.366;-1.498;2023-01-25T08:28:36;101707.81;;;5.01;100.00
41898;BME280;27576;53.366;-1.498;2023-01-25T08:31:13;101703.91;;;5.07;100.00
41898;BME280;27576;53.366;-1.498;2023-01-25T08:33:39;101729.25;;;5.32;100.00
41898;BME280;27576;53.366;-1.498;2023-01-25T08:36:06;101695.50;;;5.26;100.00
41898;BME280;27576;53.366;-1.498;2023-01-25T08:38:33;101713.38;;;5.39;100.00
41898;BME280;27576;53.366;-1.498;2023-01-25T08:41:06;101712.59;;;5.57;100.00
41898;BME280;27576;53.366;-1.498;2023-01-25T08:43:32;101691.06;;;5.55;100.00
41898;BME280;27576;53.366;-1.498;2023-01-25T08:45:58;101703.84;;;5.70;100.00
41898;BME280;27576;53.366;-1.498;2023-01-25T08:48:23;101705.78;;;5.74;100.00
41898;BME280;27576;53.366;-1.498;2023-01-25T08:50:48;101697.03;;;5.70;100.00
41898;BME280;27576;53.366;-1.498;2023-01-25T08:53:14;101673.38;;;5.61;100.00
41898;BME280;27576;53.366;-1.498;2023-01-25T08:55:40;101700.63;;;5.74;100.00
41898;BME280;27576;53.366;-1.498;2023-01-25T08:58:09;101657.78;;;5.58;100.00
41898;BME280;27576;53.366;-1.498;2023-01-25T09:00:39;101663.44;;;5.67;100.00
41898;BME280;27576;53.366;-1.498;2023-01-25T09:03:06;101648.00;;;5.67;100.00
41898;BME280;27576;53.366;-1.498;2023-01-25T09:05:36;101690.53;;;5.93;100.00
41898;BME280;27576;53.366;-1.498;2023-01-25T09:08:02;101683.97;;;5.98;100.00
41898;BME280;27576;53.366;-1.498;2023-01-25T09:10:28;101676.09;;;5.95;100.00
41898;BME280;27576;53.366;-1.498;2023-01-25T09:12:55;101669.19;;;5.94;100.00
41898;BME280;27576;53.366;-1.498;2023-01-25T09:15:20;101660.66;;;5.95;100.00
41898;BME280;27576;53.366;-1.498;2023-01-25T09:17:49;101660.16;;;6.02;100.00
41898;BME280;27576;53.366;-1.498;2023-01-25T09:20:15;101636.69;;;5.96;100.00
41898;BME280;27576;53.366;-1.498;2023-01-25T09:22:41;101659.69;;;6.09;100.00
41898;BME280;27576;53.366;-1.498;2023-01-25T09:25:07;101662.53;;;6.15;100.00
41898;BME280;27576;53.366;-1.498;2023-01-25T09:27:32;101607.16;;;5.89;100.00
41898;BME280;27576;53.366;-1.498;2023-01-25T09:29:57;101619.50;;;6.13;100.00
41898;BME280;27576;53.366;-1.498;2023-01-25T09:32:23;101615.50;;;6.18;100.00
41898;BME280;27576;53.366;-1.498;2023-01-25T09:34:48;101608.81;;;6.22;100.00
41898;BME280;27576;53.366;-1.498;2023-01-25T09:37:14;101597.69;;;6.23;100.00
41898;BME280;27576;53.366;-1.498;2023-01-25T09:39:39;101611.72;;;6.46;100.00
41898;BME280;27576;53.366;-1.498;2023-01-25T09:42:31;101620.19;;;6.61;100.00
41898;BME280;27576;53.366;-1.498;2023-01-25T09:45:04;101609.13;;;6.63;100.00
41898;BME280;27576;53.366;-1.498;2023-01-25T09:55:38;101590.72;;;6.74;100.00
41898;BME280;27576;53.366;-1.498;2023-01-25T09:58:04;101611.03;;;6.85;100.00
41898;BME280;27576;53.366;-1.498;2023-01-25T10:00:41;101598.22;;;6.87;100.00
41898;BME280;27576;53.366;-1.498;2023-01-25T10:05:58;101615.56;;;7.09;100.00
41898;BME280;27576;53.366;-1.498;2023-01-25T10:08:33;101604.84;;;7.00;100.00
41898;BME280;27576;53.366;-1.498;2023-01-25T10:11:25;101624.69;;;7.20;100.00
41898;BME280;27576;53.366;-1.498;2023-01-25T10:13:53;101636.06;;;7.25;100.00
41898;BME280;27576;53.366;-1.498;2023-01-25T10:19:24;101661.47;;;7.35;100.00
41898;BME280;27576;53.366;-1.498;2023-01-25T10:21:58;101661.88;;;7.45;100.00
41898;BME280;27576;53.366;-1.498;2023-01-25T10:25:00;101672.06;;;7.42;100.00
41898;BME280;27576;53.366;-1.498;2023-01-25T10:30:28;101659.00;;;7.38;100.00
41898;BME280;27576;53.366;-1.498;2023-01-25T10:32:57;101612.03;;;7.07;100.00
41898;BME280;27576;53.366;-1.498;2023-01-25T10:35:27;101622.63;;;7.13;100.00
41898;BME280;27576;53.366;-1.498;2023-01-25T10:37:58;101663.91;;;7.32;100.00
41898;BME280;27576;53.366;-1.498;2023-01-25T10:40:30;101680.31;;;7.34;100.00
41898;BME280;27576;53.366;-1.498;2023-01-25T10:43:02;101672.53;;;7.33;100.00
41898;BME280;27576;53.366;-1.498;2023-01-25T10:45:31;101634.44;;;7.08;100.00
41898;BME280;27576;53.366;-1.498;2023-01-25T10:48:01;101669.13;;;7.34;100.00
41898;BME280;27576;53.366;-1.498;2023-01-25T10:53:30;101657.19;;;7.36;100.00
41898;BME280;27576;53.366;-1.498;2023-01-25T10:56:24;101653.75;;;7.35;100.00
41898;BME280;27576;53.366;-1.498;2023-01-25T10:58:52;101640.72;;;7.32;100.00
41898;BME280;27576;53.366;-1.498;2023-01-25T11:01:31;101652.94;;;7.36;100.00
41898;BME280;27576;53.366;-1.498;2023-01-25T11:04:00;101652.03;;;7.36;100.00
41898;BME280;27576;53.366;-1.498;2023-01-25T11:06:35;101629.44;;;7.30;100.00
41898;BME280;27576;53.366;-1.498;2023-01-25T11:11:59;101672.06;;;7.42;100.00
41898;BME280;27576;53.366;-1.498;2023-01-25T11:14:28;101623.75;;;7.37;100.00
41898;BME280;27576;53.366;-1.498;2023-01-25T11:16:56;101644.66;;;7.44;100.00
41898;BME280;27576;53.366;-1.498;2023-01-25T11:19:30;101642.00;;;7.42;100.00
41898;BME280;27576;53.366;-1.498;2023-01-25T11:21:57;101623.53;;;7.33;100.00
41898;BME280;27576;53.366;-1.498;2023-01-25T11:24:33;101661.59;;;7.38;100.00
41898;BME280;27576;53.366;-1.498;2023-01-25T11:29:43;101632.97;;;7.32;100.00
41898;BME280;27576;53.366;-1.498;2023-01-25T11:32:20;101603.91;;;7.17;100.00
41898;BME280;27576;53.366;-1.498;2023-01-25T11:34:49;101594.94;;;7.09;100.00
41898;BME280;27576;53.366;-1.498;2023-01-25T11:37:25;101603.09;;;7.18;100.00
41898;BME280;27576;53.366;-1.498;2023-01-25T11:40:02;101602.34;;;7.21;100.00
41898;BME280;27576;53.366;-1.498;2023-01-25T11:50:46;101535.66;;;7.09;100.00
41898;BME280;27576;53.366;-1.498;2023-01-25T11:53:39;101564.97;;;7.30;100.00
41898;BME280;27576;53.366;-1.498;2023-01-25T12:15:24;101520.53;;;7.76;100.00
41898;BME280;27576;53.366;-1.498;2023-01-25T12:26:44;101531.13;;;7.82;100.00
41898;BME280;27576;53.366;-1.498;2023-01-25T12:29:29;101537.97;;;7.82;100.00
41898;BME280;27576;53.366;-1.498;2023-01-25T12:31:59;101531.00;;;7.79;100.00
41898;BME280;27576;53.366;-1.498;2023-01-25T12:34:47;101523.13;;;7.76;100.00
41898;BME280;27576;53.366;-1.498;2023-01-25T12:37:21;101523.81;;;7.72;100.00
41898;BME280;27576;53.366;-1.498;2023-01-25T12:40:16;101512.41;;;7.67;100.00
41898;BME280;27576;53.366;-1.498;2023-01-25T12:42:51;101489.38;;;7.51;100.00
41898;BME280;27576;53.366;-1.498;2023-01-25T12:45:21;101503.16;;;7.51;100.00
41898;BME280;27576;53.366;-1.498;2023-01-25T12:47:54;101496.34;;;7.53;100.00
41898;BME280;27576;53.366;-1.498;2023-01-25T12:50:26;101497.22;;;7.54;100.00
41898;BME280;27576;53.366;-1.498;2023-01-25T12:53:18;101515.66;;;7.82;100.00
41898;BME280;27576;53.366;-1.498;2023-01-25T12:55:45;101499.06;;;7.77;100.00
41898;BME280;27576;53.366;-1.498;2023-01-25T13:01:21;101490.22;;;7.71;100.00
41898;BME280;27576;53.366;-1.498;2023-01-25T13:07:00;101512.66;;;7.73;100.00
41898;BME280;27576;53.366;-1.498;2023-01-25T13:12:21;101502.53;;;7.57;100.00
41898;BME280;27576;53.366;-1.498;2023-01-25T13:14:48;101499.38;;;7.64;100.00
41898;BME280;27576;53.366;-1.498;2023-01-25T13:17:29;101484.28;;;7.73;100.00
41898;BME280;27576;53.366;-1.498;2023-01-25T13:20:57;101409.66;;;7.57;100.00
41898;BME280;27576;53.366;-1.498;2023-01-25T13:23:30;101477.56;;;8.64;100.00
41898;BME280;27576;53.366;-1.498;2023-01-25T13:28:49;101476.59;;;10.64;100.00
41898;BME280;27576;53.366;-1.498;2023-01-25T13:39:49;101475.25;;;9.67;100.00
41898;BME280;27576;53.366;-1.498;2023-01-25T13:42:25;101473.38;;;9.38;100.00
41898;BME280;27576;53.366;-1.498;2023-01-25T13:44:58;101458.63;;;9.11;100.00
41898;BME280;27576;53.366;-1.498;2023-01-25T13:47:28;101436.88;;;8.80;100.00
41898;BME280;27576;53.366;-1.498;2023-01-25T13:52:23;101449.22;;;8.43;100.00
41898;BME280;27576;53.366;-1.498;2023-01-25T13:54:53;101451.44;;;8.33;100.00
41898;BME280;27576;53.366;-1.498;2023-01-25T13:57:22;101456.94;;;8.20;100.00
41898;BME280;27576;53.366;-1.498;2023-01-25T14:00:06;101439.34;;;8.10;100.00
41898;BME280;27576;53.366;-1.498;2023-01-25T14:02:35;101444.00;;;7.98;100.00
41898;BME280;27576;53.366;-1.498;2023-01-25T14:05:03;101428.84;;;7.84;100.00
41898;BME280;27576;53.366;-1.498;2023-01-25T14:07:32;101435.75;;;7.85;100.00
41898;BME280;27576;53.366;-1.498;2023-01-25T14:10:02;101440.59;;;7.78;100.00
41898;BME280;27576;53.366;-1.498;2023-01-25T14:12:42;101420.56;;;7.71;100.00
41898;BME280;27576;53.366;-1.498;2023-01-25T14:15:15;101414.72;;;7.75;100.00
41898;BME280;27576;53.366;-1.498;2023-01-25T14:17:41;101397.72;;;7.59;100.00
41898;BME280;27576;53.366;-1.498;2023-01-25T14:20:18;101396.06;;;7.61;100.00
41898;BME280;27576;53.366;-1.498;2023-01-25T14:22:48;101398.09;;;7.68;100.00
41898;BME280;27576;53.366;-1.498;2023-01-25T14:25:19;101411.13;;;7.71;100.00
41898;BME280;27576;53.366;-1.498;2023-01-25T14:27:52;101414.50;;;7.70;100.00
41898;BME280;27576;53.366;-1.498;2023-01-25T14:30:22;101410.16;;;7.69;100.00
41898;BME280;27576;53.366;-1.498;2023-01-25T14:32:49;101415.31;;;7.69;100.00
41898;BME280;27576;53.366;-1.498;2023-01-25T14:35:39;101411.91;;;7.70;100.00
41898;BME280;27576;53.366;-1.498;2023-01-25T14:38:29;101424.81;;;7.70;100.00